GLO1529 SBFN-SBIL
Flight info
| Callsign | GLO1529 |
|---|---|
| Flight time | 1h 52m |
| Altitude | 38000 |
| Route | EDVUP UN857 AMBET UZ14 AKPAS DCT TOLOG |
| Aircraft | B738/M-SDE2E3FGHIRWXY/LB1 |
Departure
| Time | 2026-04-23 10:31 |
|---|---|
| Airport | Fernando de Noronha Airport (SBFN) |
Arrival
| Time | 2026-04-23 12:23 |
|---|---|
| Airport | Bahia - Jorge Amado Airport (SBIL) |
| Time | Latitude | Longitude | Altitude | Speed | Heading |
|---|---|---|---|---|---|
| 2026-04-23 10:04 | -3.85588 | -32.42862 | 169 ft | 0 kts | 186° |
| 2026-04-23 10:26 | -3.85585 | -32.42861 | 169 ft | 2 kts | 186° |
| 2026-04-23 10:26 | -3.85569 | -32.42859 | 169 ft | 2 kts | 195° |
| 2026-04-23 10:26 | -3.85555 | -32.42850 | 169 ft | 2 kts | 256° |
| 2026-04-23 10:26 | -3.85554 | -32.42839 | 169 ft | 1 kts | 274° |
| 2026-04-23 10:27 | -3.85554 | -32.42838 | 169 ft | 0 kts | 274° |
| 2026-04-23 10:28 | -3.85554 | -32.42844 | 169 ft | 3 kts | 274° |
| 2026-04-23 10:28 | -3.85550 | -32.42887 | 169 ft | 8 kts | 277° |
| 2026-04-23 10:29 | -3.85518 | -32.42934 | 171 ft | 8 kts | 323° |
| 2026-04-23 10:29 | -3.85471 | -32.42968 | 173 ft | 8 kts | 326° |
| 2026-04-23 10:29 | -3.85424 | -32.43000 | 176 ft | 8 kts | 325° |
| 2026-04-23 10:29 | -3.85394 | -32.43045 | 178 ft | 8 kts | 279° |
| 2026-04-23 10:30 | -3.85409 | -32.43092 | 178 ft | 6 kts | 227° |
| 2026-04-23 10:30 | -3.85406 | -32.43124 | 178 ft | 6 kts | 330° |
| 2026-04-23 10:30 | -3.85385 | -32.43100 | 178 ft | 6 kts | 96° |
| 2026-04-23 10:30 | -3.85397 | -32.42952 | 175 ft | 59 kts | 95° |
| 2026-04-23 10:31 | -3.85451 | -32.42250 | 175 ft | 140 kts | 95° |
| 2026-04-23 10:31 | -3.85533 | -32.41179 | 806 ft | 157 kts | 94° |
| 2026-04-23 10:31 | -3.85618 | -32.40052 | 1741 ft | 163 kts | 95° |
| 2026-04-23 10:31 | -3.85776 | -32.38878 | 2459 ft | 185 kts | 114° |
| 2026-04-23 10:32 | -3.86710 | -32.37910 | 2748 ft | 215 kts | 156° |
| 2026-04-23 10:32 | -3.87734 | -32.37721 | 2919 ft | 233 kts | 184° |
| 2026-04-23 10:32 | -3.89828 | -32.38590 | 3392 ft | 264 kts | 211° |
| 2026-04-23 10:32 | -3.91389 | -32.39619 | 4200 ft | 269 kts | 213° |
| 2026-04-23 10:33 | -3.92946 | -32.40672 | 5157 ft | 271 kts | 212° |
| 2026-04-23 10:33 | -3.94512 | -32.41711 | 6208 ft | 265 kts | 212° |
| 2026-04-23 10:33 | -3.95555 | -32.42389 | 6837 ft | 266 kts | 212° |
| 2026-04-23 10:33 | -3.97073 | -32.43358 | 7833 ft | 260 kts | 211° |
| 2026-04-23 10:34 | -3.98612 | -32.44321 | 8683 ft | 262 kts | 211° |
| 2026-04-23 10:34 | -4.00151 | -32.45274 | 9674 ft | 257 kts | 211° |
| 2026-04-23 10:34 | -4.01681 | -32.46211 | 10442 ft | 260 kts | 210° |
| 2026-04-23 10:34 | -4.03260 | -32.47172 | 10894 ft | 277 kts | 210° |
| 2026-04-23 10:35 | -4.04995 | -32.48220 | 11080 ft | 303 kts | 210° |
| 2026-04-23 10:35 | -4.06878 | -32.49356 | 11271 ft | 328 kts | 210° |
| 2026-04-23 10:35 | -4.09585 | -32.50984 | 11653 ft | 352 kts | 210° |
| 2026-04-23 10:35 | -4.11015 | -32.51844 | 12041 ft | 357 kts | 210° |
| 2026-04-23 10:36 | -4.13131 | -32.53116 | 12706 ft | 361 kts | 210° |
| 2026-04-23 10:36 | -4.15291 | -32.54414 | 13403 ft | 364 kts | 209° |
| 2026-04-23 10:36 | -4.17481 | -32.55729 | 14032 ft | 368 kts | 209° |
| 2026-04-23 10:36 | -4.19685 | -32.57052 | 14633 ft | 371 kts | 209° |
| 2026-04-23 10:37 | -4.21911 | -32.58387 | 15237 ft | 374 kts | 209° |
| 2026-04-23 10:37 | -4.24153 | -32.59732 | 15837 ft | 377 kts | 210° |
| 2026-04-23 10:37 | -4.26412 | -32.61087 | 16423 ft | 380 kts | 210° |
| 2026-04-23 10:37 | -4.28698 | -32.62459 | 16994 ft | 384 kts | 210° |
| 2026-04-23 10:38 | -4.30999 | -32.63839 | 17565 ft | 387 kts | 210° |
| 2026-04-23 10:38 | -4.33314 | -32.65228 | 18130 ft | 390 kts | 210° |
| 2026-04-23 10:38 | -4.35657 | -32.66633 | 18617 ft | 393 kts | 210° |
| 2026-04-23 10:38 | -4.38009 | -32.68045 | 19075 ft | 396 kts | 210° |
| 2026-04-23 10:39 | -4.40354 | -32.69453 | 19538 ft | 399 kts | 210° |
| 2026-04-23 10:39 | -4.42748 | -32.70890 | 20006 ft | 402 kts | 210° |
| 2026-04-23 10:39 | -4.45160 | -32.72337 | 20459 ft | 405 kts | 210° |
| 2026-04-23 10:39 | -4.47591 | -32.73797 | 20900 ft | 408 kts | 210° |
| 2026-04-23 10:40 | -4.50040 | -32.75267 | 21341 ft | 411 kts | 210° |
| 2026-04-23 10:40 | -4.52501 | -32.76745 | 21774 ft | 414 kts | 210° |
| 2026-04-23 10:40 | -4.54984 | -32.78236 | 22196 ft | 417 kts | 210° |
| 2026-04-23 10:40 | -4.57485 | -32.79738 | 22616 ft | 420 kts | 210° |
| 2026-04-23 10:41 | -4.60006 | -32.81249 | 23043 ft | 423 kts | 210° |
| 2026-04-23 10:41 | -4.62552 | -32.82667 | 23462 ft | 425 kts | 207° |
| 2026-04-23 10:41 | -4.65186 | -32.84037 | 23797 ft | 428 kts | 206° |
| 2026-04-23 10:41 | -4.67862 | -32.85389 | 24121 ft | 431 kts | 206° |
| 2026-04-23 10:42 | -4.70553 | -32.86741 | 24430 ft | 434 kts | 206° |
| 2026-04-23 10:42 | -4.73266 | -32.88108 | 24767 ft | 436 kts | 206° |
| 2026-04-23 10:42 | -4.75982 | -32.89485 | 25103 ft | 438 kts | 206° |
| 2026-04-23 10:42 | -4.78709 | -32.90875 | 25433 ft | 441 kts | 206° |
| 2026-04-23 10:43 | -4.81447 | -32.92277 | 25758 ft | 443 kts | 206° |
| 2026-04-23 10:43 | -4.84203 | -32.93691 | 26076 ft | 445 kts | 206° |
| 2026-04-23 10:43 | -4.86929 | -32.95093 | 26384 ft | 447 kts | 206° |
| 2026-04-23 10:43 | -4.89705 | -32.96520 | 26691 ft | 450 kts | 206° |
| 2026-04-23 10:44 | -4.92504 | -32.97960 | 27001 ft | 452 kts | 206° |
| 2026-04-23 10:44 | -4.95307 | -32.99402 | 27310 ft | 454 kts | 206° |
| 2026-04-23 10:44 | -4.98124 | -33.00852 | 27601 ft | 456 kts | 206° |
| 2026-04-23 10:44 | -5.00960 | -33.02310 | 27882 ft | 459 kts | 206° |
| 2026-04-23 10:45 | -5.03810 | -33.03777 | 28157 ft | 461 kts | 206° |
| 2026-04-23 10:45 | -5.06671 | -33.05248 | 28434 ft | 463 kts | 206° |
| 2026-04-23 10:45 | -5.09552 | -33.06731 | 28701 ft | 466 kts | 206° |
| 2026-04-23 10:45 | -5.12445 | -33.08219 | 28960 ft | 468 kts | 206° |
| 2026-04-23 10:46 | -5.15342 | -33.09710 | 29232 ft | 470 kts | 206° |
| 2026-04-23 10:46 | -5.18266 | -33.11215 | 29480 ft | 472 kts | 206° |
| 2026-04-23 10:46 | -5.21199 | -33.12724 | 29716 ft | 475 kts | 206° |
| 2026-04-23 10:46 | -5.24111 | -33.14223 | 29948 ft | 477 kts | 206° |
| 2026-04-23 10:47 | -5.27067 | -33.15745 | 30162 ft | 479 kts | 206° |
| 2026-04-23 10:47 | -5.30039 | -33.17276 | 30357 ft | 481 kts | 206° |
| 2026-04-23 10:47 | -5.33015 | -33.18808 | 30542 ft | 483 kts | 206° |
| 2026-04-23 10:47 | -5.36010 | -33.20350 | 30742 ft | 485 kts | 206° |
| 2026-04-23 10:48 | -5.39018 | -33.21900 | 30953 ft | 486 kts | 206° |
| 2026-04-23 10:48 | -5.42034 | -33.23454 | 31207 ft | 486 kts | 206° |
| 2026-04-23 10:48 | -5.45045 | -33.25005 | 31497 ft | 486 kts | 206° |
| 2026-04-23 10:48 | -5.48047 | -33.26552 | 31793 ft | 485 kts | 206° |
| 2026-04-23 10:49 | -5.51048 | -33.28099 | 32062 ft | 485 kts | 206° |
| 2026-04-23 10:49 | -5.54056 | -33.29649 | 32325 ft | 485 kts | 206° |
| 2026-04-23 10:49 | -5.57058 | -33.31196 | 32591 ft | 486 kts | 206° |
| 2026-04-23 10:49 | -5.60067 | -33.32747 | 32876 ft | 485 kts | 206° |
| 2026-04-23 10:50 | -5.63109 | -33.34315 | 33190 ft | 485 kts | 206° |
| 2026-04-23 10:50 | -5.66079 | -33.35847 | 33467 ft | 485 kts | 206° |
| 2026-04-23 10:50 | -5.69082 | -33.37395 | 33728 ft | 486 kts | 206° |
| 2026-04-23 10:50 | -5.72087 | -33.38944 | 34012 ft | 485 kts | 206° |
| 2026-04-23 10:51 | -5.75089 | -33.40493 | 34293 ft | 484 kts | 206° |
| 2026-04-23 10:51 | -5.78080 | -33.42036 | 34575 ft | 483 kts | 206° |
| 2026-04-23 10:51 | -5.81065 | -33.43576 | 34835 ft | 482 kts | 206° |
| 2026-04-23 10:51 | -5.84054 | -33.45118 | 35099 ft | 481 kts | 206° |
| 2026-04-23 10:52 | -5.87031 | -33.46654 | 35373 ft | 480 kts | 206° |
| 2026-04-23 10:52 | -5.90001 | -33.48187 | 35636 ft | 479 kts | 206° |
| 2026-04-23 10:52 | -5.92968 | -33.49718 | 35878 ft | 479 kts | 206° |
| 2026-04-23 10:52 | -5.95890 | -33.51227 | 36125 ft | 478 kts | 206° |
| 2026-04-23 10:53 | -5.98883 | -33.52772 | 36388 ft | 477 kts | 206° |
| 2026-04-23 10:53 | -6.01799 | -33.54278 | 36628 ft | 477 kts | 206° |
| 2026-04-23 10:53 | -6.04748 | -33.55801 | 36866 ft | 476 kts | 206° |
| 2026-04-23 10:53 | -6.07699 | -33.57325 | 37106 ft | 475 kts | 206° |
| 2026-04-23 10:54 | -6.10642 | -33.58845 | 37336 ft | 475 kts | 206° |
| 2026-04-23 10:54 | -6.13576 | -33.60360 | 37561 ft | 474 kts | 206° |
| 2026-04-23 10:54 | -6.16502 | -33.61872 | 37798 ft | 473 kts | 206° |
| 2026-04-23 10:54 | -6.19433 | -33.63386 | 37967 ft | 474 kts | 206° |
| 2026-04-23 10:55 | -6.25326 | -33.66432 | 37959 ft | 475 kts | 206° |
| 2026-04-23 10:55 | -6.31186 | -33.69461 | 37954 ft | 471 kts | 206° |
| 2026-04-23 10:56 | -6.36994 | -33.72465 | 37963 ft | 468 kts | 205° |
| 2026-04-23 10:56 | -6.42744 | -33.75439 | 37963 ft | 466 kts | 205° |
| 2026-04-23 10:57 | -6.48505 | -33.78419 | 37954 ft | 465 kts | 206° |
| 2026-04-23 10:57 | -6.54276 | -33.81405 | 37965 ft | 466 kts | 206° |
| 2026-04-23 10:58 | -6.60059 | -33.84398 | 37962 ft | 468 kts | 206° |
| 2026-04-23 10:58 | -6.65825 | -33.87383 | 37959 ft | 470 kts | 206° |
| 2026-04-23 10:59 | -6.71659 | -33.90405 | 37966 ft | 473 kts | 206° |
| 2026-04-23 10:59 | -6.77526 | -33.93444 | 37972 ft | 475 kts | 206° |
| 2026-04-23 11:00 | -6.83422 | -33.96499 | 37967 ft | 477 kts | 206° |
| 2026-04-23 11:00 | -6.89328 | -33.99560 | 37967 ft | 478 kts | 206° |
| 2026-04-23 11:01 | -6.95237 | -34.02624 | 37965 ft | 478 kts | 206° |
| 2026-04-23 11:01 | -7.01152 | -34.05692 | 37965 ft | 477 kts | 206° |
| 2026-04-23 11:02 | -7.07007 | -34.08730 | 37958 ft | 476 kts | 206° |
| 2026-04-23 11:02 | -7.12888 | -34.11782 | 37964 ft | 474 kts | 206° |
| 2026-04-23 11:03 | -7.18756 | -34.14828 | 37967 ft | 473 kts | 206° |
| 2026-04-23 11:03 | -7.24636 | -34.17880 | 37970 ft | 472 kts | 206° |
| 2026-04-23 11:04 | -7.30422 | -34.20885 | 37971 ft | 471 kts | 206° |
| 2026-04-23 11:04 | -7.36247 | -34.23912 | 37968 ft | 470 kts | 206° |
| 2026-04-23 11:05 | -7.42068 | -34.26937 | 37972 ft | 470 kts | 206° |
| 2026-04-23 11:05 | -7.47894 | -34.29966 | 37983 ft | 470 kts | 206° |
| 2026-04-23 11:06 | -7.56624 | -34.34506 | 37977 ft | 471 kts | 206° |
| 2026-04-23 11:07 | -7.62457 | -34.37541 | 37975 ft | 472 kts | 206° |
| 2026-04-23 11:07 | -7.68297 | -34.40581 | 37975 ft | 472 kts | 206° |
| 2026-04-23 11:08 | -7.74145 | -34.43625 | 37972 ft | 473 kts | 206° |
| 2026-04-23 11:08 | -7.79579 | -34.47287 | 37985 ft | 474 kts | 218° |
| 2026-04-23 11:09 | -7.84712 | -34.51482 | 37973 ft | 474 kts | 218° |
| 2026-04-23 11:09 | -7.89842 | -34.55672 | 37980 ft | 474 kts | 218° |
| 2026-04-23 11:10 | -7.95001 | -34.59824 | 37981 ft | 474 kts | 218° |
| 2026-04-23 11:10 | -8.00135 | -34.63933 | 37978 ft | 473 kts | 218° |
| 2026-04-23 11:11 | -8.05323 | -34.68090 | 37975 ft | 473 kts | 217° |
| 2026-04-23 11:11 | -8.10474 | -34.72220 | 37972 ft | 472 kts | 217° |
| 2026-04-23 11:12 | -8.15611 | -34.76342 | 37972 ft | 471 kts | 217° |
| 2026-04-23 11:12 | -8.20817 | -34.80347 | 37970 ft | 469 kts | 214° |
| 2026-04-23 11:13 | -8.26189 | -34.84072 | 37970 ft | 468 kts | 213° |
| 2026-04-23 11:13 | -8.31542 | -34.87742 | 37975 ft | 467 kts | 213° |
| 2026-04-23 11:14 | -8.36032 | -34.90857 | 37981 ft | 466 kts | 213° |
| 2026-04-23 11:14 | -8.42236 | -34.95195 | 37995 ft | 465 kts | 213° |
| 2026-04-23 11:15 | -8.46662 | -34.98297 | 37986 ft | 465 kts | 213° |
| 2026-04-23 11:15 | -8.51964 | -35.02012 | 37993 ft | 464 kts | 213° |
| 2026-04-23 11:16 | -8.57273 | -35.05732 | 37987 ft | 463 kts | 213° |
| 2026-04-23 11:16 | -8.62567 | -35.09443 | 37994 ft | 463 kts | 213° |
| 2026-04-23 11:17 | -8.67861 | -35.13154 | 37992 ft | 462 kts | 214° |
| 2026-04-23 11:17 | -8.73150 | -35.16864 | 37997 ft | 462 kts | 214° |
| 2026-04-23 11:18 | -8.78435 | -35.20572 | 38003 ft | 462 kts | 214° |
| 2026-04-23 11:18 | -8.83714 | -35.24279 | 38003 ft | 461 kts | 214° |
| 2026-04-23 11:19 | -8.88987 | -35.27981 | 37999 ft | 461 kts | 214° |
| 2026-04-23 11:19 | -8.94222 | -35.31656 | 38001 ft | 461 kts | 214° |
| 2026-04-23 11:20 | -8.99483 | -35.35351 | 38000 ft | 460 kts | 214° |
| 2026-04-23 11:20 | -9.04734 | -35.39041 | 38001 ft | 459 kts | 214° |
| 2026-04-23 11:21 | -9.09976 | -35.42726 | 38003 ft | 458 kts | 215° |
| 2026-04-23 11:21 | -9.15209 | -35.46408 | 38001 ft | 458 kts | 215° |
| 2026-04-23 11:22 | -9.20441 | -35.50089 | 38004 ft | 457 kts | 215° |
| 2026-04-23 11:22 | -9.25658 | -35.53759 | 38005 ft | 456 kts | 215° |
| 2026-04-23 11:23 | -9.30874 | -35.57430 | 38003 ft | 456 kts | 215° |
| 2026-04-23 11:23 | -9.36040 | -35.61069 | 38000 ft | 455 kts | 215° |
| 2026-04-23 11:24 | -9.41225 | -35.64721 | 37999 ft | 455 kts | 215° |
| 2026-04-23 11:24 | -9.46441 | -35.68399 | 37996 ft | 455 kts | 216° |
| 2026-04-23 11:25 | -9.51642 | -35.72067 | 37993 ft | 456 kts | 216° |
| 2026-04-23 11:25 | -9.56854 | -35.75743 | 37994 ft | 457 kts | 216° |
| 2026-04-23 11:26 | -9.62074 | -35.79426 | 37997 ft | 458 kts | 216° |
| 2026-04-23 11:26 | -9.67314 | -35.83126 | 37999 ft | 458 kts | 216° |
| 2026-04-23 11:27 | -9.72553 | -35.86827 | 38003 ft | 459 kts | 216° |
| 2026-04-23 11:27 | -9.77805 | -35.90537 | 38007 ft | 459 kts | 216° |
| 2026-04-23 11:28 | -9.83049 | -35.94243 | 38016 ft | 459 kts | 216° |
| 2026-04-23 11:28 | -9.88295 | -35.97953 | 38008 ft | 459 kts | 216° |
| 2026-04-23 11:29 | -9.93498 | -36.01633 | 38009 ft | 458 kts | 216° |
| 2026-04-23 11:29 | -9.98728 | -36.05334 | 38010 ft | 457 kts | 216° |
| 2026-04-23 11:30 | -10.03975 | -36.09047 | 38006 ft | 456 kts | 216° |
| 2026-04-23 11:30 | -10.09177 | -36.12732 | 38010 ft | 455 kts | 216° |
| 2026-04-23 11:31 | -10.14337 | -36.16388 | 38009 ft | 455 kts | 216° |
| 2026-04-23 11:31 | -10.19520 | -36.20062 | 38006 ft | 454 kts | 216° |
| 2026-04-23 11:32 | -10.24696 | -36.23732 | 38011 ft | 453 kts | 216° |
| 2026-04-23 11:32 | -10.29855 | -36.27391 | 38015 ft | 452 kts | 216° |
| 2026-04-23 11:33 | -10.35008 | -36.31048 | 38014 ft | 451 kts | 216° |
| 2026-04-23 11:33 | -10.40156 | -36.34703 | 38013 ft | 451 kts | 216° |
| 2026-04-23 11:34 | -10.45301 | -36.38357 | 38008 ft | 451 kts | 216° |
| 2026-04-23 11:34 | -10.50442 | -36.42010 | 38012 ft | 451 kts | 216° |
| 2026-04-23 11:35 | -10.55586 | -36.45667 | 38012 ft | 451 kts | 216° |
| 2026-04-23 11:35 | -10.60734 | -36.49328 | 38014 ft | 452 kts | 216° |
| 2026-04-23 11:36 | -10.65863 | -36.52977 | 38013 ft | 452 kts | 216° |
| 2026-04-23 11:36 | -10.71018 | -36.56646 | 38016 ft | 453 kts | 216° |
| 2026-04-23 11:37 | -10.76180 | -36.60322 | 38016 ft | 453 kts | 216° |
| 2026-04-23 11:37 | -10.81348 | -36.64004 | 38017 ft | 454 kts | 216° |
| 2026-04-23 11:38 | -10.86522 | -36.67701 | 38021 ft | 454 kts | 216° |
| 2026-04-23 11:38 | -10.91699 | -36.71420 | 38016 ft | 457 kts | 216° |
| 2026-04-23 11:39 | -10.96891 | -36.75155 | 38010 ft | 457 kts | 216° |
| 2026-04-23 11:39 | -11.02050 | -36.78866 | 38010 ft | 456 kts | 216° |
| 2026-04-23 11:40 | -11.07262 | -36.82615 | 38008 ft | 455 kts | 216° |
| 2026-04-23 11:40 | -11.12392 | -36.86307 | 38011 ft | 454 kts | 216° |
| 2026-04-23 11:41 | -11.17555 | -36.90025 | 38005 ft | 454 kts | 216° |
| 2026-04-23 11:41 | -11.22712 | -36.93740 | 38011 ft | 453 kts | 216° |
| 2026-04-23 11:42 | -11.27861 | -36.97450 | 38016 ft | 452 kts | 215° |
| 2026-04-23 11:42 | -11.32995 | -37.01152 | 38023 ft | 452 kts | 215° |
| 2026-04-23 11:43 | -11.38128 | -37.04854 | 38022 ft | 451 kts | 216° |
| 2026-04-23 11:43 | -11.43258 | -37.08556 | 38025 ft | 451 kts | 215° |
| 2026-04-23 11:44 | -11.48381 | -37.12255 | 38024 ft | 451 kts | 215° |
| 2026-04-23 11:44 | -11.53520 | -37.15967 | 38025 ft | 452 kts | 215° |
| 2026-04-23 11:45 | -11.58617 | -37.19650 | 38027 ft | 453 kts | 215° |
| 2026-04-23 11:45 | -11.63769 | -37.23375 | 38031 ft | 454 kts | 215° |
| 2026-04-23 11:46 | -11.68935 | -37.27112 | 38031 ft | 455 kts | 215° |
| 2026-04-23 11:46 | -11.74114 | -37.30860 | 38030 ft | 456 kts | 215° |
| 2026-04-23 11:47 | -11.79268 | -37.34591 | 38034 ft | 457 kts | 215° |
| 2026-04-23 11:47 | -11.84458 | -37.38351 | 38038 ft | 458 kts | 215° |
| 2026-04-23 11:48 | -11.89652 | -37.42116 | 38032 ft | 458 kts | 214° |
| 2026-04-23 11:48 | -11.94868 | -37.45851 | 38048 ft | 457 kts | 213° |
| 2026-04-23 11:49 | -12.00211 | -37.49421 | 38014 ft | 459 kts | 212° |
| 2026-04-23 11:49 | -12.05564 | -37.52949 | 38028 ft | 456 kts | 212° |
| 2026-04-23 11:50 | -12.10877 | -37.56481 | 38028 ft | 454 kts | 212° |
| 2026-04-23 11:50 | -12.16116 | -37.59986 | 38030 ft | 452 kts | 212° |
| 2026-04-23 11:51 | -12.21365 | -37.63506 | 38035 ft | 450 kts | 212° |
| 2026-04-23 11:51 | -12.26592 | -37.67014 | 38038 ft | 448 kts | 212° |
| 2026-04-23 11:52 | -12.31799 | -37.70508 | 38040 ft | 448 kts | 211° |
| 2026-04-23 11:52 | -12.37010 | -37.74007 | 38043 ft | 448 kts | 211° |
| 2026-04-23 11:53 | -12.42226 | -37.77511 | 38045 ft | 449 kts | 211° |
| 2026-04-23 11:53 | -12.47450 | -37.81021 | 38047 ft | 450 kts | 211° |
| 2026-04-23 11:54 | -12.51808 | -37.83951 | 38043 ft | 450 kts | 211° |
| 2026-04-23 11:54 | -12.57095 | -37.87507 | 38042 ft | 451 kts | 211° |
| 2026-04-23 11:55 | -12.62348 | -37.91043 | 38043 ft | 452 kts | 211° |
| 2026-04-23 11:55 | -12.67610 | -37.94586 | 38048 ft | 452 kts | 210° |
| 2026-04-23 11:56 | -12.72910 | -37.98157 | 38073 ft | 455 kts | 210° |
| 2026-04-23 11:56 | -12.78186 | -38.01712 | 38034 ft | 458 kts | 210° |
| 2026-04-23 11:57 | -12.83488 | -38.05289 | 38032 ft | 455 kts | 210° |
| 2026-04-23 11:57 | -12.86153 | -38.07086 | 37498 ft | 459 kts | 210° |
| 2026-04-23 11:57 | -12.88806 | -38.08877 | 36963 ft | 456 kts | 210° |
| 2026-04-23 11:57 | -12.91458 | -38.10668 | 36358 ft | 455 kts | 210° |
| 2026-04-23 11:58 | -12.94106 | -38.12456 | 35742 ft | 455 kts | 210° |
| 2026-04-23 11:58 | -12.96791 | -38.14269 | 35060 ft | 457 kts | 210° |
| 2026-04-23 11:58 | -12.99459 | -38.16070 | 34436 ft | 457 kts | 210° |
| 2026-04-23 11:58 | -13.02101 | -38.17856 | 33938 ft | 455 kts | 210° |
| 2026-04-23 11:59 | -13.04699 | -38.19613 | 33417 ft | 451 kts | 210° |
| 2026-04-23 11:59 | -13.07309 | -38.21379 | 32929 ft | 448 kts | 210° |
| 2026-04-23 11:59 | -13.09907 | -38.23136 | 32449 ft | 444 kts | 210° |
| 2026-04-23 11:59 | -13.12475 | -38.24874 | 31982 ft | 440 kts | 210° |
| 2026-04-23 12:00 | -13.15024 | -38.26598 | 31526 ft | 437 kts | 210° |
| 2026-04-23 12:00 | -13.17551 | -38.28309 | 31062 ft | 434 kts | 210° |
| 2026-04-23 12:00 | -13.20098 | -38.30033 | 30635 ft | 432 kts | 210° |
| 2026-04-23 12:00 | -13.22618 | -38.31738 | 30105 ft | 434 kts | 210° |
| 2026-04-23 12:01 | -13.25102 | -38.33419 | 29636 ft | 432 kts | 210° |
| 2026-04-23 12:01 | -13.27611 | -38.35117 | 29138 ft | 432 kts | 210° |
| 2026-04-23 12:01 | -13.30124 | -38.36820 | 28605 ft | 431 kts | 210° |
| 2026-04-23 12:01 | -13.32628 | -38.38516 | 28184 ft | 431 kts | 211° |
| 2026-04-23 12:02 | -13.35136 | -38.40216 | 27634 ft | 432 kts | 211° |
| 2026-04-23 12:02 | -13.37635 | -38.41912 | 27126 ft | 429 kts | 211° |
| 2026-04-23 12:02 | -13.40110 | -38.43591 | 26683 ft | 424 kts | 211° |
| 2026-04-23 12:02 | -13.42559 | -38.45253 | 26220 ft | 420 kts | 211° |
| 2026-04-23 12:03 | -13.44983 | -38.46899 | 25763 ft | 416 kts | 211° |
| 2026-04-23 12:03 | -13.47392 | -38.48534 | 25285 ft | 414 kts | 211° |
| 2026-04-23 12:03 | -13.49788 | -38.50160 | 24824 ft | 411 kts | 211° |
| 2026-04-23 12:03 | -13.52166 | -38.51775 | 24355 ft | 409 kts | 211° |
| 2026-04-23 12:04 | -13.54538 | -38.53386 | 23895 ft | 407 kts | 212° |
| 2026-04-23 12:04 | -13.56895 | -38.54987 | 23392 ft | 405 kts | 212° |
| 2026-04-23 12:04 | -13.59241 | -38.56581 | 22917 ft | 402 kts | 212° |
| 2026-04-23 12:04 | -13.61573 | -38.58166 | 22444 ft | 401 kts | 212° |
| 2026-04-23 12:05 | -13.63896 | -38.59746 | 21997 ft | 401 kts | 212° |
| 2026-04-23 12:05 | -13.66234 | -38.61336 | 21477 ft | 404 kts | 212° |
| 2026-04-23 12:05 | -13.68566 | -38.62922 | 21010 ft | 400 kts | 212° |
| 2026-04-23 12:05 | -13.70879 | -38.64497 | 20574 ft | 395 kts | 213° |
| 2026-04-23 12:06 | -13.73131 | -38.66029 | 20153 ft | 391 kts | 213° |
| 2026-04-23 12:06 | -13.75391 | -38.67568 | 19720 ft | 388 kts | 213° |
| 2026-04-23 12:06 | -13.79870 | -38.70618 | 18816 ft | 383 kts | 213° |
| 2026-04-23 12:07 | -13.82175 | -38.71984 | 18353 ft | 381 kts | 204° |
| 2026-04-23 12:07 | -13.84667 | -38.72924 | 17614 ft | 385 kts | 194° |
| 2026-04-23 12:07 | -13.87302 | -38.73393 | 17059 ft | 383 kts | 187° |
| 2026-04-23 12:07 | -13.89942 | -38.73761 | 16562 ft | 380 kts | 187° |
| 2026-04-23 12:08 | -13.92548 | -38.74120 | 16121 ft | 376 kts | 187° |
| 2026-04-23 12:08 | -13.95132 | -38.74478 | 15688 ft | 372 kts | 187° |
| 2026-04-23 12:08 | -13.97687 | -38.74838 | 15263 ft | 368 kts | 187° |
| 2026-04-23 12:08 | -14.00215 | -38.75198 | 14848 ft | 365 kts | 186° |
| 2026-04-23 12:09 | -14.02685 | -38.75552 | 14431 ft | 362 kts | 186° |
| 2026-04-23 12:09 | -14.05173 | -38.75910 | 14018 ft | 359 kts | 186° |
| 2026-04-23 12:09 | -14.07640 | -38.76266 | 13562 ft | 356 kts | 186° |
| 2026-04-23 12:09 | -14.10082 | -38.76620 | 13130 ft | 353 kts | 186° |
| 2026-04-23 12:10 | -14.12503 | -38.76971 | 12716 ft | 349 kts | 186° |
| 2026-04-23 12:10 | -14.14900 | -38.77319 | 12311 ft | 345 kts | 186° |
| 2026-04-23 12:10 | -14.17267 | -38.77662 | 11917 ft | 341 kts | 186° |
| 2026-04-23 12:10 | -14.19610 | -38.78002 | 11531 ft | 338 kts | 186° |
| 2026-04-23 12:11 | -14.21935 | -38.78339 | 11153 ft | 335 kts | 186° |
| 2026-04-23 12:11 | -14.24209 | -38.78669 | 10750 ft | 326 kts | 186° |
| 2026-04-23 12:11 | -14.26419 | -38.78990 | 10498 ft | 312 kts | 185° |
| 2026-04-23 12:11 | -14.28508 | -38.79296 | 10337 ft | 296 kts | 185° |
| 2026-04-23 12:12 | -14.30473 | -38.79583 | 10207 ft | 280 kts | 185° |
| 2026-04-23 12:12 | -14.32352 | -38.79856 | 10101 ft | 267 kts | 185° |
| 2026-04-23 12:12 | -14.34188 | -38.80121 | 9855 ft | 267 kts | 185° |
| 2026-04-23 12:12 | -14.36041 | -38.80387 | 9597 ft | 270 kts | 185° |
| 2026-04-23 12:13 | -14.37922 | -38.80658 | 9305 ft | 276 kts | 185° |
| 2026-04-23 12:13 | -14.39838 | -38.80934 | 8976 ft | 279 kts | 185° |
| 2026-04-23 12:13 | -14.41763 | -38.81214 | 8677 ft | 279 kts | 185° |
| 2026-04-23 12:13 | -14.43684 | -38.81493 | 8393 ft | 279 kts | 185° |
| 2026-04-23 12:14 | -14.45601 | -38.81772 | 8091 ft | 278 kts | 185° |
| 2026-04-23 12:14 | -14.47508 | -38.82050 | 7809 ft | 276 kts | 185° |
| 2026-04-23 12:14 | -14.49403 | -38.82326 | 7521 ft | 274 kts | 185° |
| 2026-04-23 12:14 | -14.51282 | -38.82599 | 7244 ft | 272 kts | 185° |
| 2026-04-23 12:15 | -14.53150 | -38.82871 | 6953 ft | 270 kts | 185° |
| 2026-04-23 12:15 | -14.55006 | -38.83141 | 6676 ft | 268 kts | 185° |
| 2026-04-23 12:15 | -14.56847 | -38.83409 | 6389 ft | 266 kts | 185° |
| 2026-04-23 12:15 | -14.58669 | -38.83674 | 6037 ft | 262 kts | 185° |
| 2026-04-23 12:16 | -14.60462 | -38.83936 | 5760 ft | 259 kts | 185° |
| 2026-04-23 12:16 | -14.62243 | -38.84195 | 5478 ft | 257 kts | 185° |
| 2026-04-23 12:16 | -14.64008 | -38.84451 | 5201 ft | 255 kts | 185° |
| 2026-04-23 12:16 | -14.65754 | -38.84706 | 4967 ft | 253 kts | 184° |
| 2026-04-23 12:17 | -14.67536 | -38.84963 | 4707 ft | 267 kts | 186° |
| 2026-04-23 12:17 | -14.69389 | -38.85231 | 4300 ft | 274 kts | 185° |
| 2026-04-23 12:17 | -14.71229 | -38.85502 | 4105 ft | 258 kts | 185° |
| 2026-04-23 12:17 | -14.72950 | -38.85742 | 3937 ft | 242 kts | 181° |
| 2026-04-23 12:18 | -14.74592 | -38.85751 | 3694 ft | 231 kts | 175° |
| 2026-04-23 12:18 | -14.76160 | -38.85688 | 3463 ft | 220 kts | 175° |
| 2026-04-23 12:18 | -14.77634 | -38.85632 | 3268 ft | 204 kts | 175° |
| 2026-04-23 12:18 | -14.78996 | -38.85605 | 3054 ft | 189 kts | 182° |
| 2026-04-23 12:19 | -14.80121 | -38.86212 | 2848 ft | 188 kts | 228° |
| 2026-04-23 12:19 | -14.80622 | -38.87438 | 2676 ft | 182 kts | 243° |
| 2026-04-23 12:19 | -14.81022 | -38.88645 | 2471 ft | 174 kts | 253° |
| 2026-04-23 12:19 | -14.81169 | -38.89842 | 2295 ft | 161 kts | 259° |
| 2026-04-23 12:20 | -14.81239 | -38.90946 | 2170 ft | 150 kts | 259° |
| 2026-04-23 12:20 | -14.81285 | -38.92019 | 1976 ft | 149 kts | 260° |
| 2026-04-23 12:20 | -14.81320 | -38.93083 | 1866 ft | 145 kts | 261° |
| 2026-04-23 12:20 | -14.81349 | -38.94118 | 1688 ft | 144 kts | 261° |
| 2026-04-23 12:21 | -14.81378 | -38.95166 | 1545 ft | 148 kts | 261° |
| 2026-04-23 12:21 | -14.81407 | -38.96253 | 1324 ft | 151 kts | 262° |
| 2026-04-23 12:21 | -14.81433 | -38.97315 | 1125 ft | 146 kts | 260° |
| 2026-04-23 12:21 | -14.81460 | -38.98362 | 939 ft | 149 kts | 259° |
| 2026-04-23 12:22 | -14.81491 | -38.99443 | 781 ft | 151 kts | 262° |
| 2026-04-23 12:22 | -14.81526 | -39.00499 | 528 ft | 148 kts | 267° |
| 2026-04-23 12:22 | -14.81536 | -39.01527 | 251 ft | 138 kts | 267° |
| 2026-04-23 12:22 | -14.81579 | -39.02485 | 43 ft | 136 kts | 266° |
| 2026-04-23 12:23 | -14.81593 | -39.03371 | 19 ft | 98 kts | 269° |
| 2026-04-23 12:23 | -14.81606 | -39.03864 | 22 ft | 39 kts | 269° |
| 2026-04-23 12:23 | -14.81594 | -39.03973 | 22 ft | 2 kts | 249° |
| 2026-04-23 12:23 | -14.81610 | -39.03978 | 22 ft | 2 kts | 174° |
| 2026-04-23 12:24 | -14.81619 | -39.03965 | 23 ft | 2 kts | 103° |
| 2026-04-23 12:24 | -14.81615 | -39.03935 | 25 ft | 7 kts | 80° |
| 2026-04-23 12:24 | -14.81607 | -39.03865 | 22 ft | 12 kts | 87° |
| 2026-04-23 12:24 | -14.81603 | -39.03761 | 21 ft | 17 kts | 88° |
| 2026-04-23 12:25 | -14.81600 | -39.03627 | 21 ft | 20 kts | 88° |
| 2026-04-23 12:25 | -14.81596 | -39.03470 | 20 ft | 22 kts | 89° |
| 2026-04-23 12:25 | -14.81592 | -39.03319 | 18 ft | 17 kts | 88° |
| 2026-04-23 12:25 | -14.81561 | -39.03249 | 18 ft | 8 kts | 25° |
| 2026-04-23 12:26 | -14.81515 | -39.03246 | 18 ft | 7 kts | 2° |
| 2026-04-23 12:26 | -14.81485 | -39.03217 | 18 ft | 6 kts | 77° |
| 2026-04-23 12:26 | -14.81483 | -39.03171 | 18 ft | 6 kts | 89° |
| 2026-04-23 12:26 | -14.81475 | -39.03155 | 20 ft | 2 kts | 26° |
| 2026-04-23 12:27 | -14.81465 | -39.03152 | 18 ft | 2 kts | 12° |
| 2026-04-23 12:27 | -14.81453 | -39.03153 | 19 ft | 2 kts | 347° |
| 2026-04-23 12:27 | -14.81446 | -39.03159 | 19 ft | 0 kts | 311° |